Noah, Georgia
Current Conditions -  °F | °C
As of 3:53 PM on Wednesday 26 Nov 2014 (Local Time) from KAGS Reporting Station
Few Clouds Few Clouds  
Wind Chill: 60°   Ceiling: Unl
Heat Index: 60°   Visibility: 10mi
Dew Point: 35°   Wind: 8mph
Humidity: 39%   Direction: 270°W
Pressure: 30.03"   Gusts: NA
Location:  33.2117°N, 82.3044°W
Report Text: KAGS 262053Z 27007KT 10SM FEW055 16/02 A3003 RMK AO2 SLP169 T01560017 55001
Loading
Personal Weather Stations






























Interactive Weather Map New forecast layout! Learn more

10-Day Weather Forecast

Advertisements
Track Severe Weather on mobile